sensor_id;sensor_type;location;lat;lon;timestamp;P1;durP1;ratioP1;P2;durP2;ratioP2
72125;SDS011;59999;51.676;22.650;2022-09-21T00:00:45;19.33;;;8.53;;
72125;SDS011;59999;51.676;22.650;2022-09-21T00:03:26;19.08;;;8.98;;
72125;SDS011;59999;51.676;22.650;2022-09-21T00:06:00;17.95;;;8.15;;
72125;SDS011;59999;51.676;22.650;2022-09-21T00:08:26;18.33;;;9.00;;
72125;SDS011;59999;51.676;22.650;2022-09-21T00:10:52;18.53;;;8.87;;
72125;SDS011;59999;51.676;22.650;2022-09-21T00:13:18;20.58;;;9.63;;
72125;SDS011;59999;51.676;22.650;2022-09-21T00:15:45;22.63;;;10.10;;
72125;SDS011;59999;51.676;22.650;2022-09-21T00:18:11;22.02;;;10.40;;
72125;SDS011;59999;51.676;22.650;2022-09-21T00:20:39;20.60;;;10.18;;
72125;SDS011;59999;51.676;22.650;2022-09-21T00:23:08;22.20;;;10.70;;
72125;SDS011;59999;51.676;22.650;2022-09-21T00:25:34;23.10;;;11.10;;
72125;SDS011;59999;51.676;22.650;2022-09-21T00:28:00;23.48;;;11.05;;
72125;SDS011;59999;51.676;22.650;2022-09-21T00:30:26;29.73;;;12.70;;
72125;SDS011;59999;51.676;22.650;2022-09-21T00:32:53;25.15;;;11.32;;
72125;SDS011;59999;51.676;22.650;2022-09-21T00:35:19;27.15;;;12.40;;
72125;SDS011;59999;51.676;22.650;2022-09-21T00:37:45;27.42;;;11.95;;
72125;SDS011;59999;51.676;22.650;2022-09-21T00:40:11;23.80;;;10.93;;
72125;SDS011;59999;51.676;22.650;2022-09-21T00:42:37;27.38;;;12.38;;
72125;SDS011;59999;51.676;22.650;2022-09-21T00:45:04;29.15;;;12.45;;
72125;SDS011;59999;51.676;22.650;2022-09-21T00:47:40;27.70;;;12.43;;
72125;SDS011;59999;51.676;22.650;2022-09-21T00:50:11;28.45;;;12.63;;
72125;SDS011;59999;51.676;22.650;2022-09-21T00:52:43;34.85;;;13.60;;
72125;SDS011;59999;51.676;22.650;2022-09-21T00:58:08;35.03;;;13.45;;
72125;SDS011;59999;51.676;22.650;2022-09-21T01:00:40;34.03;;;14.73;;
72125;SDS011;59999;51.676;22.650;2022-09-21T01:03:08;37.20;;;14.48;;
72125;SDS011;59999;51.676;22.650;2022-09-21T01:05:36;42.00;;;15.85;;
72125;SDS011;59999;51.676;22.650;2022-09-21T01:08:02;47.73;;;16.83;;
72125;SDS011;59999;51.676;22.650;2022-09-21T01:10:45;40.17;;;15.70;;
72125;SDS011;59999;51.676;22.650;2022-09-21T01:28:03;44.78;;;13.27;;
72125;SDS011;59999;51.676;22.650;2022-09-21T01:30:50;41.97;;;13.45;;
72125;SDS011;59999;51.676;22.650;2022-09-21T01:33:25;49.78;;;14.80;;
72125;SDS011;59999;51.676;22.650;2022-09-21T01:36:08;35.67;;;12.93;;
72125;SDS011;59999;51.676;22.650;2022-09-21T01:38:43;46.05;;;14.13;;
72125;SDS011;59999;51.676;22.650;2022-09-21T01:41:15;37.08;;;13.88;;
72125;SDS011;59999;51.676;22.650;2022-09-21T01:43:46;34.17;;;13.45;;
72125;SDS011;59999;51.676;22.650;2022-09-21T01:46:17;37.20;;;13.15;;
72125;SDS011;59999;51.676;22.650;2022-09-21T01:48:46;40.37;;;14.03;;
72125;SDS011;59999;51.676;22.650;2022-09-21T01:51:16;39.00;;;14.00;;
72125;SDS011;59999;51.676;22.650;2022-09-21T01:53:51;38.08;;;14.02;;
72125;SDS011;59999;51.676;22.650;2022-09-21T01:56:23;40.20;;;13.50;;
72125;SDS011;59999;51.676;22.650;2022-09-21T02:01:44;36.23;;;13.07;;
72125;SDS011;59999;51.676;22.650;2022-09-21T02:04:23;38.75;;;13.27;;
72125;SDS011;59999;51.676;22.650;2022-09-21T02:06:49;36.90;;;13.40;;
72125;SDS011;59999;51.676;22.650;2022-09-21T02:09:16;37.35;;;12.63;;
72125;SDS011;59999;51.676;22.650;2022-09-21T02:11:42;35.08;;;12.20;;
72125;SDS011;59999;51.676;22.650;2022-09-21T02:14:10;39.93;;;13.90;;
72125;SDS011;59999;51.676;22.650;2022-09-21T02:20:04;34.85;;;12.13;;
72125;SDS011;59999;51.676;22.650;2022-09-21T02:25:36;30.67;;;12.18;;
72125;SDS011;59999;51.676;22.650;2022-09-21T02:28:20;35.13;;;12.97;;
72125;SDS011;59999;51.676;22.650;2022-09-21T02:30:57;33.35;;;12.90;;
72125;SDS011;59999;51.676;22.650;2022-09-21T02:33:52;30.98;;;12.50;;
72125;SDS011;59999;51.676;22.650;2022-09-21T02:41:35;29.27;;;11.53;;
72125;SDS011;59999;51.676;22.650;2022-09-21T02:44:17;27.73;;;11.15;;
72125;SDS011;59999;51.676;22.650;2022-09-21T02:47:03;29.10;;;11.63;;
72125;SDS011;59999;51.676;22.650;2022-09-21T02:49:37;30.80;;;11.35;;
72125;SDS011;59999;51.676;22.650;2022-09-21T02:52:12;30.77;;;11.02;;
72125;SDS011;59999;51.676;22.650;2022-09-21T02:54:42;26.70;;;11.20;;
72125;SDS011;59999;51.676;22.650;2022-09-21T02:57:12;30.33;;;9.90;;
72125;SDS011;59999;51.676;22.650;2022-09-21T02:59:40;28.42;;;10.40;;
72125;SDS011;59999;51.676;22.650;2022-09-21T03:02:08;23.33;;;9.30;;
72125;SDS011;59999;51.676;22.650;2022-09-21T03:04:37;27.15;;;8.95;;
72125;SDS011;59999;51.676;22.650;2022-09-21T03:07:06;20.33;;;8.43;;
72125;SDS011;59999;51.676;22.650;2022-09-21T03:09:33;21.38;;;8.35;;
72125;SDS011;59999;51.676;22.650;2022-09-21T03:11:58;22.77;;;8.75;;
72125;SDS011;59999;51.676;22.650;2022-09-21T03:14:24;22.90;;;7.73;;
72125;SDS011;59999;51.676;22.650;2022-09-21T03:16:50;20.90;;;7.85;;
72125;SDS011;59999;51.676;22.650;2022-09-21T03:19:16;17.73;;;6.63;;
72125;SDS011;59999;51.676;22.650;2022-09-21T03:21:42;19.08;;;7.88;;
72125;SDS011;59999;51.676;22.650;2022-09-21T03:24:08;17.13;;;6.73;;
72125;SDS011;59999;51.676;22.650;2022-09-21T03:26:34;19.50;;;7.07;;
72125;SDS011;59999;51.676;22.650;2022-09-21T03:29:00;18.30;;;7.10;;
72125;SDS011;59999;51.676;22.650;2022-09-21T03:31:29;17.50;;;7.05;;
72125;SDS011;59999;51.676;22.650;2022-09-21T03:33:56;18.83;;;7.03;;
72125;SDS011;59999;51.676;22.650;2022-09-21T03:36:22;16.65;;;6.43;;
72125;SDS011;59999;51.676;22.650;2022-09-21T03:38:48;19.98;;;7.25;;
72125;SDS011;59999;51.676;22.650;2022-09-21T03:41:14;20.92;;;7.22;;
72125;SDS011;59999;51.676;22.650;2022-09-21T03:43:40;18.30;;;6.20;;
72125;SDS011;59999;51.676;22.650;2022-09-21T03:46:06;18.55;;;6.60;;
72125;SDS011;59999;51.676;22.650;2022-09-21T03:48:32;16.77;;;5.70;;
72125;SDS011;59999;51.676;22.650;2022-09-21T03:50:58;17.23;;;6.43;;
72125;SDS011;59999;51.676;22.650;2022-09-21T03:53:24;15.35;;;5.90;;
72125;SDS011;59999;51.676;22.650;2022-09-21T03:55:50;17.30;;;6.53;;
72125;SDS011;59999;51.676;22.650;2022-09-21T03:58:16;17.03;;;5.80;;
72125;SDS011;59999;51.676;22.650;2022-09-21T04:00:42;15.98;;;5.88;;
72125;SDS011;59999;51.676;22.650;2022-09-21T04:03:07;14.32;;;5.63;;
72125;SDS011;59999;51.676;22.650;2022-09-21T04:05:33;15.37;;;5.40;;
72125;SDS011;59999;51.676;22.650;2022-09-21T04:08:00;15.85;;;5.30;;
72125;SDS011;59999;51.676;22.650;2022-09-21T04:10:26;14.85;;;5.38;;
72125;SDS011;59999;51.676;22.650;2022-09-21T04:12:57;16.77;;;5.50;;
72125;SDS011;59999;51.676;22.650;2022-09-21T04:15:26;15.65;;;5.65;;
72125;SDS011;59999;51.676;22.650;2022-09-21T04:17:53;14.63;;;5.63;;
72125;SDS011;59999;51.676;22.650;2022-09-21T04:20:20;17.70;;;6.00;;
72125;SDS011;59999;51.676;22.650;2022-09-21T04:22:46;16.77;;;6.07;;
72125;SDS011;59999;51.676;22.650;2022-09-21T04:25:13;16.83;;;6.07;;
72125;SDS011;59999;51.676;22.650;2022-09-21T04:27:40;24.33;;;7.43;;
72125;SDS011;59999;51.676;22.650;2022-09-21T04:30:06;18.33;;;6.05;;
72125;SDS011;59999;51.676;22.650;2022-09-21T04:32:34;17.45;;;6.30;;
72125;SDS011;59999;51.676;22.650;2022-09-21T04:35:00;19.08;;;6.13;;
72125;SDS011;59999;51.676;22.650;2022-09-21T04:37:26;16.33;;;6.37;;
72125;SDS011;59999;51.676;22.650;2022-09-21T04:39:52;11.98;;;4.78;;
72125;SDS011;59999;51.676;22.650;2022-09-21T04:42:18;14.73;;;4.95;;
72125;SDS011;59999;51.676;22.650;2022-09-21T04:44:44;14.23;;;5.10;;
72125;SDS011;59999;51.676;22.650;2022-09-21T04:47:10;15.52;;;5.50;;
72125;SDS011;59999;51.676;22.650;2022-09-21T04:49:36;14.82;;;5.05;;
72125;SDS011;59999;51.676;22.650;2022-09-21T04:52:03;14.32;;;5.40;;
72125;SDS011;59999;51.676;22.650;2022-09-21T04:54:29;15.93;;;4.93;;
72125;SDS011;59999;51.676;22.650;2022-09-21T04:56:55;19.17;;;6.37;;
72125;SDS011;59999;51.676;22.650;2022-09-21T04:59:21;15.93;;;5.43;;
72125;SDS011;59999;51.676;22.650;2022-09-21T05:01:47;16.17;;;5.10;;
72125;SDS011;59999;51.676;22.650;2022-09-21T05:04:13;14.23;;;5.33;;
72125;SDS011;59999;51.676;22.650;2022-09-21T05:06:40;15.60;;;5.22;;
72125;SDS011;59999;51.676;22.650;2022-09-21T05:09:05;15.45;;;5.43;;
72125;SDS011;59999;51.676;22.650;2022-09-21T05:11:51;14.90;;;5.40;;
72125;SDS011;59999;51.676;22.650;2022-09-21T05:14:17;21.40;;;6.57;;
72125;SDS011;59999;51.676;22.650;2022-09-21T05:16:43;19.98;;;7.35;;
72125;SDS011;59999;51.676;22.650;2022-09-21T05:19:09;19.27;;;7.00;;
72125;SDS011;59999;51.676;22.650;2022-09-21T05:21:35;19.50;;;6.82;;
72125;SDS011;59999;51.676;22.650;2022-09-21T05:24:01;19.00;;;6.67;;
72125;SDS011;59999;51.676;22.650;2022-09-21T05:26:28;19.65;;;6.50;;
72125;SDS011;59999;51.676;22.650;2022-09-21T05:28:54;18.63;;;6.35;;
72125;SDS011;59999;51.676;22.650;2022-09-21T05:31:26;18.77;;;5.95;;
72125;SDS011;59999;51.676;22.650;2022-09-21T05:34:07;23.13;;;7.43;;
72125;SDS011;59999;51.676;22.650;2022-09-21T05:39:05;21.88;;;7.82;;
72125;SDS011;59999;51.676;22.650;2022-09-21T05:41:34;20.48;;;7.63;;
72125;SDS011;59999;51.676;22.650;2022-09-21T05:44:00;20.30;;;7.22;;
72125;SDS011;59999;51.676;22.650;2022-09-21T05:46:40;20.83;;;7.17;;
72125;SDS011;59999;51.676;22.650;2022-09-21T05:52:39;21.77;;;7.40;;
72125;SDS011;59999;51.676;22.650;2022-09-21T05:55:25;20.15;;;7.00;;
72125;SDS011;59999;51.676;22.650;2022-09-21T05:58:00;20.10;;;7.22;;
72125;SDS011;59999;51.676;22.650;2022-09-21T06:03:36;19.92;;;8.32;;
72125;SDS011;59999;51.676;22.650;2022-09-21T06:06:06;17.92;;;7.10;;
72125;SDS011;59999;51.676;22.650;2022-09-21T06:08:34;21.45;;;7.57;;
72125;SDS011;59999;51.676;22.650;2022-09-21T06:11:00;20.70;;;7.03;;
72125;SDS011;59999;51.676;22.650;2022-09-21T06:13:26;16.20;;;6.30;;
72125;SDS011;59999;51.676;22.650;2022-09-21T06:15:52;15.88;;;5.80;;
72125;SDS011;59999;51.676;22.650;2022-09-21T06:18:18;15.85;;;5.55;;
72125;SDS011;59999;51.676;22.650;2022-09-21T06:20:45;13.77;;;5.10;;
72125;SDS011;59999;51.676;22.650;2022-09-21T06:23:11;13.30;;;4.20;;
72125;SDS011;59999;51.676;22.650;2022-09-21T06:25:38;12.18;;;4.97;;
72125;SDS011;59999;51.676;22.650;2022-09-21T06:28:05;12.98;;;4.45;;
72125;SDS011;59999;51.676;22.650;2022-09-21T06:30:33;13.77;;;4.97;;
72125;SDS011;59999;51.676;22.650;2022-09-21T06:33:00;10.90;;;4.25;;
72125;SDS011;59999;51.676;22.650;2022-09-21T06:35:27;11.10;;;4.07;;
72125;SDS011;59999;51.676;22.650;2022-09-21T06:38:00;12.23;;;4.28;;
72125;SDS011;59999;51.676;22.650;2022-09-21T06:40:28;12.05;;;4.43;;
72125;SDS011;59999;51.676;22.650;2022-09-21T06:42:55;10.85;;;4.20;;
72125;SDS011;59999;51.676;22.650;2022-09-21T06:45:22;11.45;;;4.32;;
72125;SDS011;59999;51.676;22.650;2022-09-21T06:47:49;11.33;;;4.27;;
72125;SDS011;59999;51.676;22.650;2022-09-21T06:50:15;12.70;;;4.97;;
72125;SDS011;59999;51.676;22.650;2022-09-21T06:52:40;11.75;;;4.72;;
72125;SDS011;59999;51.676;22.650;2022-09-21T06:55:07;11.98;;;5.30;;
72125;SDS011;59999;51.676;22.650;2022-09-21T06:57:34;10.50;;;4.27;;
72125;SDS011;59999;51.676;22.650;2022-09-21T07:00:07;14.73;;;5.47;;
72125;SDS011;59999;51.676;22.650;2022-09-21T07:02:35;14.00;;;5.85;;
72125;SDS011;59999;51.676;22.650;2022-09-21T07:05:01;15.02;;;6.05;;
72125;SDS011;59999;51.676;22.650;2022-09-21T07:07:28;18.90;;;7.50;;
72125;SDS011;59999;51.676;22.650;2022-09-21T07:09:57;18.08;;;7.70;;
72125;SDS011;59999;51.676;22.650;2022-09-21T07:12:26;20.33;;;9.68;;
72125;SDS011;59999;51.676;22.650;2022-09-21T07:14:53;14.30;;;5.95;;
72125;SDS011;59999;51.676;22.650;2022-09-21T07:17:19;13.40;;;5.45;;
72125;SDS011;59999;51.676;22.650;2022-09-21T07:19:45;13.33;;;5.80;;
72125;SDS011;59999;51.676;22.650;2022-09-21T07:22:10;14.23;;;6.32;;
72125;SDS011;59999;51.676;22.650;2022-09-21T07:24:36;14.77;;;5.80;;
72125;SDS011;59999;51.676;22.650;2022-09-21T07:27:02;19.77;;;8.70;;
72125;SDS011;59999;51.676;22.650;2022-09-21T07:29:29;13.32;;;5.55;;
72125;SDS011;59999;51.676;22.650;2022-09-21T07:31:55;27.67;;;12.68;;
72125;SDS011;59999;51.676;22.650;2022-09-21T07:34:21;13.13;;;5.50;;
72125;SDS011;59999;51.676;22.650;2022-09-21T07:36:47;12.73;;;5.72;;
72125;SDS011;59999;51.676;22.650;2022-09-21T07:39:13;11.27;;;5.25;;
72125;SDS011;59999;51.676;22.650;2022-09-21T07:41:39;11.52;;;4.70;;
72125;SDS011;59999;51.676;22.650;2022-09-21T07:44:05;10.60;;;4.50;;
72125;SDS011;59999;51.676;22.650;2022-09-21T07:46:31;9.73;;;4.35;;
72125;SDS011;59999;51.676;22.650;2022-09-21T07:48:57;11.27;;;4.65;;
72125;SDS011;59999;51.676;22.650;2022-09-21T07:51:23;11.10;;;4.50;;
72125;SDS011;59999;51.676;22.650;2022-09-21T07:53:53;12.43;;;5.10;;
72125;SDS011;59999;51.676;22.650;2022-09-21T07:56:23;11.10;;;4.72;;
72125;SDS011;59999;51.676;22.650;2022-09-21T07:58:49;13.73;;;5.70;;
72125;SDS011;59999;51.676;22.650;2022-09-21T08:01:35;14.65;;;6.55;;
72125;SDS011;59999;51.676;22.650;2022-09-21T08:04:03;12.63;;;5.87;;
72125;SDS011;59999;51.676;22.650;2022-09-21T08:06:32;16.50;;;6.30;;
72125;SDS011;59999;51.676;22.650;2022-09-21T08:08:59;12.77;;;5.78;;
72125;SDS011;59999;51.676;22.650;2022-09-21T08:11:27;14.57;;;6.35;;
72125;SDS011;59999;51.676;22.650;2022-09-21T08:13:55;15.65;;;7.00;;
72125;SDS011;59999;51.676;22.650;2022-09-21T08:16:23;13.93;;;5.77;;
72125;SDS011;59999;51.676;22.650;2022-09-21T08:18:49;13.02;;;6.00;;
72125;SDS011;59999;51.676;22.650;2022-09-21T08:21:16;13.60;;;5.30;;
72125;SDS011;59999;51.676;22.650;2022-09-21T08:23:42;13.50;;;6.20;;
72125;SDS011;59999;51.676;22.650;2022-09-21T08:26:12;14.00;;;6.17;;
72125;SDS011;59999;51.676;22.650;2022-09-21T08:28:46;13.88;;;5.80;;
72125;SDS011;59999;51.676;22.650;2022-09-21T08:31:16;16.75;;;5.50;;
72125;SDS011;59999;51.676;22.650;2022-09-21T08:33:47;13.20;;;5.28;;
72125;SDS011;59999;51.676;22.650;2022-09-21T08:36:14;12.70;;;5.65;;
72125;SDS011;59999;51.676;22.650;2022-09-21T08:38:40;13.97;;;4.90;;
72125;SDS011;59999;51.676;22.650;2022-09-21T08:41:12;11.82;;;5.47;;
72125;SDS011;59999;51.676;22.650;2022-09-21T08:43:42;13.38;;;6.10;;
72125;SDS011;59999;51.676;22.650;2022-09-21T08:46:11;15.63;;;7.25;;
72125;SDS011;59999;51.676;22.650;2022-09-21T08:48:42;17.48;;;8.10;;
72125;SDS011;59999;51.676;22.650;2022-09-21T08:51:14;16.63;;;7.63;;
72125;SDS011;59999;51.676;22.650;2022-09-21T08:53:48;18.27;;;8.40;;
72125;SDS011;59999;51.676;22.650;2022-09-21T08:56:24;36.22;;;21.58;;
72125;SDS011;59999;51.676;22.650;2022-09-21T08:58:51;18.80;;;8.52;;
72125;SDS011;59999;51.676;22.650;2022-09-21T09:15:47;16.17;;;7.28;;
72125;SDS011;59999;51.676;22.650;2022-09-21T09:23:49;16.08;;;6.75;;
72125;SDS011;59999;51.676;22.650;2022-09-21T09:26:25;14.95;;;6.40;;
72125;SDS011;59999;51.676;22.650;2022-09-21T09:29:19;17.70;;;6.65;;
72125;SDS011;59999;51.676;22.650;2022-09-21T09:31:53;15.00;;;6.83;;
72125;SDS011;59999;51.676;22.650;2022-09-21T09:34:23;15.77;;;6.68;;
72125;SDS011;59999;51.676;22.650;2022-09-21T09:36:56;15.88;;;6.97;;
72125;SDS011;59999;51.676;22.650;2022-09-21T09:39:23;15.10;;;6.72;;
72125;SDS011;59999;51.676;22.650;2022-09-21T09:41:59;15.25;;;6.95;;
72125;SDS011;59999;51.676;22.650;2022-09-21T09:47:27;15.43;;;6.65;;
72125;SDS011;59999;51.676;22.650;2022-09-21T09:53:02;13.90;;;6.45;;
72125;SDS011;59999;51.676;22.650;2022-09-21T09:55:50;12.55;;;5.90;;
72125;SDS011;59999;51.676;22.650;2022-09-21T09:58:19;12.20;;;5.27;;
72125;SDS011;59999;51.676;22.650;2022-09-21T10:00:49;11.88;;;5.13;;
72125;SDS011;59999;51.676;22.650;2022-09-21T10:03:19;11.75;;;5.57;;
72125;SDS011;59999;51.676;22.650;2022-09-21T10:05:46;10.93;;;5.03;;
72125;SDS011;59999;51.676;22.650;2022-09-21T10:11:15;12.53;;;5.90;;
72125;SDS011;59999;51.676;22.650;2022-09-21T10:13:42;13.30;;;6.15;;
72125;SDS011;59999;51.676;22.650;2022-09-21T10:18:57;8.98;;;3.92;;
72125;SDS011;59999;51.676;22.650;2022-09-21T10:24:06;11.47;;;4.87;;
72125;SDS011;59999;51.676;22.650;2022-09-21T10:26:49;9.93;;;4.22;;
72125;SDS011;59999;51.676;22.650;2022-09-21T10:31:55;11.30;;;4.68;;
72125;SDS011;59999;51.676;22.650;2022-09-21T10:34:33;13.20;;;6.22;;
72125;SDS011;59999;51.676;22.650;2022-09-21T10:37:00;12.07;;;6.50;;
72125;SDS011;59999;51.676;22.650;2022-09-21T10:39:30;11.00;;;5.32;;
72125;SDS011;59999;51.676;22.650;2022-09-21T10:42:06;12.70;;;5.40;;
72125;SDS011;59999;51.676;22.650;2022-09-21T10:44:39;11.55;;;5.50;;
72125;SDS011;59999;51.676;22.650;2022-09-21T10:49:49;12.33;;;5.60;;
72125;SDS011;59999;51.676;22.650;2022-09-21T10:52:20;10.23;;;5.03;;
72125;SDS011;59999;51.676;22.650;2022-09-21T10:54:55;13.23;;;4.90;;
72125;SDS011;59999;51.676;22.650;2022-09-21T10:57:22;12.95;;;5.00;;
72125;SDS011;59999;51.676;22.650;2022-09-21T10:59:50;10.38;;;5.18;;
72125;SDS011;59999;51.676;22.650;2022-09-21T11:05:09;11.48;;;5.10;;
72125;SDS011;59999;51.676;22.650;2022-09-21T11:10:18;10.07;;;4.63;;
72125;SDS011;59999;51.676;22.650;2022-09-21T11:23:51;8.38;;;4.13;;
72125;SDS011;59999;51.676;22.650;2022-09-21T11:26:24;10.27;;;4.70;;
72125;SDS011;59999;51.676;22.650;2022-09-21T11:29:37;10.10;;;4.30;;
72125;SDS011;59999;51.676;22.650;2022-09-21T11:40:06;10.45;;;4.32;;
72125;SDS011;59999;51.676;22.650;2022-09-21T11:48:29;11.00;;;5.07;;
72125;SDS011;59999;51.676;22.650;2022-09-21T11:51:46;10.55;;;5.40;;
72125;SDS011;59999;51.676;22.650;2022-09-21T11:54:40;10.27;;;4.95;;
72125;SDS011;59999;51.676;22.650;2022-09-21T12:00:23;8.65;;;4.43;;
72125;SDS011;59999;51.676;22.650;2022-09-21T12:05:35;8.75;;;4.05;;
72125;SDS011;59999;51.676;22.650;2022-09-21T12:10:45;8.80;;;3.90;;
72125;SDS011;59999;51.676;22.650;2022-09-21T12:13:29;8.23;;;4.40;;
72125;SDS011;59999;51.676;22.650;2022-09-21T12:17:03;7.70;;;3.95;;
72125;SDS011;59999;51.676;22.650;2022-09-21T12:22:26;9.07;;;4.38;;
72125;SDS011;59999;51.676;22.650;2022-09-21T12:24:57;8.20;;;4.00;;
72125;SDS011;59999;51.676;22.650;2022-09-21T12:27:30;8.68;;;3.75;;
72125;SDS011;59999;51.676;22.650;2022-09-21T12:30:03;9.10;;;3.50;;
72125;SDS011;59999;51.676;22.650;2022-09-21T12:32:56;7.55;;;3.50;;
72125;SDS011;59999;51.676;22.650;2022-09-21T12:38:18;6.07;;;2.80;;
72125;SDS011;59999;51.676;22.650;2022-09-21T12:40:49;6.18;;;2.80;;
72125;SDS011;59999;51.676;22.650;2022-09-21T12:43:39;9.02;;;3.50;;
72125;SDS011;59999;51.676;22.650;2022-09-21T12:46:13;7.60;;;3.80;;
72125;SDS011;59999;51.676;22.650;2022-09-21T12:48:54;7.57;;;3.60;;
72125;SDS011;59999;51.676;22.650;2022-09-21T12:54:07;7.30;;;3.40;;
72125;SDS011;59999;51.676;22.650;2022-09-21T13:00:02;8.40;;;3.60;;
72125;SDS011;59999;51.676;22.650;2022-09-21T13:05:10;7.03;;;3.43;;
72125;SDS011;59999;51.676;22.650;2022-09-21T13:08:10;7.78;;;3.13;;
72125;SDS011;59999;51.676;22.650;2022-09-21T13:10:59;6.97;;;3.03;;
72125;SDS011;59999;51.676;22.650;2022-09-21T13:13:36;7.10;;;2.60;;
72125;SDS011;59999;51.676;22.650;2022-09-21T13:16:28;7.78;;;3.65;;
72125;SDS011;59999;51.676;22.650;2022-09-21T13:19:00;7.27;;;3.20;;
72125;SDS011;59999;51.676;22.650;2022-09-21T13:21:30;6.45;;;3.10;;
72125;SDS011;59999;51.676;22.650;2022-09-21T13:23:58;6.93;;;3.30;;
72125;SDS011;59999;51.676;22.650;2022-09-21T13:29:04;7.00;;;3.20;;
72125;SDS011;59999;51.676;22.650;2022-09-21T13:34:35;7.30;;;3.50;;
72125;SDS011;59999;51.676;22.650;2022-09-21T13:44:54;7.77;;;3.60;;
72125;SDS011;59999;51.676;22.650;2022-09-21T13:47:51;8.15;;;3.80;;
72125;SDS011;59999;51.676;22.650;2022-09-21T13:50:37;7.78;;;3.53;;
72125;SDS011;59999;51.676;22.650;2022-09-21T13:56:05;7.30;;;3.22;;
72125;SDS011;59999;51.676;22.650;2022-09-21T13:58:43;7.27;;;3.40;;
72125;SDS011;59999;51.676;22.650;2022-09-21T14:01:14;7.45;;;3.42;;
72125;SDS011;59999;51.676;22.650;2022-09-21T14:03:44;8.20;;;3.47;;
72125;SDS011;59999;51.676;22.650;2022-09-21T14:09:03;5.10;;;1.90;;
72125;SDS011;59999;51.676;22.650;2022-09-21T14:11:40;5.23;;;2.10;;
72125;SDS011;59999;51.676;22.650;2022-09-21T14:24:35;6.27;;;1.93;;
72125;SDS011;59999;51.676;22.650;2022-09-21T14:29:52;6.03;;;2.22;;
72125;SDS011;59999;51.676;22.650;2022-09-21T14:32:25;5.93;;;2.20;;
72125;SDS011;59999;51.676;22.650;2022-09-21T14:34:56;5.05;;;1.60;;
72125;SDS011;59999;51.676;22.650;2022-09-21T14:49:24;4.18;;;1.33;;
72125;SDS011;59999;51.676;22.650;2022-09-21T15:00:20;5.22;;;1.40;;
72125;SDS011;59999;51.676;22.650;2022-09-21T15:06:00;6.00;;;2.50;;
72125;SDS011;59999;51.676;22.650;2022-09-21T15:08:55;4.20;;;1.37;;
72125;SDS011;59999;51.676;22.650;2022-09-21T15:12:00;4.97;;;1.85;;
72125;SDS011;59999;51.676;22.650;2022-09-21T15:14:36;4.82;;;1.70;;
72125;SDS011;59999;51.676;22.650;2022-09-21T15:17:20;4.72;;;1.67;;
72125;SDS011;59999;51.676;22.650;2022-09-21T15:19:55;5.05;;;1.85;;
72125;SDS011;59999;51.676;22.650;2022-09-21T15:22:23;5.10;;;1.90;;
72125;SDS011;59999;51.676;22.650;2022-09-21T15:24:50;6.75;;;2.03;;
72125;SDS011;59999;51.676;22.650;2022-09-21T15:27:19;4.95;;;1.80;;
72125;SDS011;59999;51.676;22.650;2022-09-21T15:29:57;5.50;;;1.70;;
72125;SDS011;59999;51.676;22.650;2022-09-21T15:34:59;6.07;;;2.00;;
72125;SDS011;59999;51.676;22.650;2022-09-21T15:37:27;5.93;;;2.42;;
72125;SDS011;59999;51.676;22.650;2022-09-21T15:40:00;5.15;;;1.88;;
72125;SDS011;59999;51.676;22.650;2022-09-21T15:42:27;5.55;;;1.80;;
72125;SDS011;59999;51.676;22.650;2022-09-21T15:45:14;5.20;;;1.85;;
72125;SDS011;59999;51.676;22.650;2022-09-21T15:47:42;4.87;;;1.77;;
72125;SDS011;59999;51.676;22.650;2022-09-21T15:50:15;9.10;;;3.50;;
72125;SDS011;59999;51.676;22.650;2022-09-21T15:52:47;10.23;;;4.20;;
72125;SDS011;59999;51.676;22.650;2022-09-21T15:55:19;14.68;;;7.75;;
72125;SDS011;59999;51.676;22.650;2022-09-21T15:57:47;10.38;;;4.22;;
72125;SDS011;59999;51.676;22.650;2022-09-21T16:12:30;75.37;;;41.57;;
72125;SDS011;59999;51.676;22.650;2022-09-21T16:17:56;49.60;;;20.35;;
72125;SDS011;59999;51.676;22.650;2022-09-21T16:20:37;42.75;;;18.33;;
72125;SDS011;59999;51.676;22.650;2022-09-21T16:23:12;33.35;;;15.25;;
72125;SDS011;59999;51.676;22.650;2022-09-21T16:25:41;15.70;;;7.67;;
72125;SDS011;59999;51.676;22.650;2022-09-21T16:30:45;27.65;;;11.13;;
72125;SDS011;59999;51.676;22.650;2022-09-21T16:38:44;16.17;;;7.00;;
72125;SDS011;59999;51.676;22.650;2022-09-21T16:41:15;22.88;;;13.10;;
72125;SDS011;59999;51.676;22.650;2022-09-21T16:43:41;24.13;;;11.80;;
72125;SDS011;59999;51.676;22.650;2022-09-21T16:46:09;31.45;;;16.92;;
72125;SDS011;59999;51.676;22.650;2022-09-21T16:48:35;55.08;;;25.92;;
72125;SDS011;59999;51.676;22.650;2022-09-21T16:51:01;25.53;;;11.80;;
72125;SDS011;59999;51.676;22.650;2022-09-21T16:53:27;28.80;;;9.38;;
72125;SDS011;59999;51.676;22.650;2022-09-21T16:55:53;35.67;;;12.50;;
72125;SDS011;59999;51.676;22.650;2022-09-21T16:58:20;98.90;;;46.27;;
72125;SDS011;59999;51.676;22.650;2022-09-21T17:00:48;81.65;;;40.13;;
72125;SDS011;59999;51.676;22.650;2022-09-21T17:03:18;79.50;;;43.15;;
72125;SDS011;59999;51.676;22.650;2022-09-21T17:05:44;30.85;;;12.77;;
72125;SDS011;59999;51.676;22.650;2022-09-21T17:08:11;63.00;;;29.17;;
72125;SDS011;59999;51.676;22.650;2022-09-21T17:10:38;99.18;;;48.03;;
72125;SDS011;59999;51.676;22.650;2022-09-21T17:13:08;74.63;;;28.92;;
72125;SDS011;59999;51.676;22.650;2022-09-21T17:15:42;49.30;;;17.50;;
72125;SDS011;59999;51.676;22.650;2022-09-21T17:18:11;57.80;;;27.70;;
72125;SDS011;59999;51.676;22.650;2022-09-21T17:20:41;21.13;;;9.43;;
72125;SDS011;59999;51.676;22.650;2022-09-21T17:23:09;214.82;;;121.40;;
72125;SDS011;59999;51.676;22.650;2022-09-21T17:25:36;111.88;;;61.95;;
72125;SDS011;59999;51.676;22.650;2022-09-21T17:28:05;98.18;;;56.75;;
72125;SDS011;59999;51.676;22.650;2022-09-21T17:30:42;76.72;;;47.40;;
72125;SDS011;59999;51.676;22.650;2022-09-21T17:33:10;34.07;;;19.23;;
72125;SDS011;59999;51.676;22.650;2022-09-21T17:35:37;33.53;;;19.10;;
72125;SDS011;59999;51.676;22.650;2022-09-21T17:38:06;35.55;;;22.05;;
72125;SDS011;59999;51.676;22.650;2022-09-21T17:40:33;29.55;;;15.15;;
72125;SDS011;59999;51.676;22.650;2022-09-21T17:43:01;31.23;;;15.07;;
72125;SDS011;59999;51.676;22.650;2022-09-21T17:48:16;48.58;;;25.55;;
72125;SDS011;59999;51.676;22.650;2022-09-21T17:50:45;173.23;;;115.45;;
72125;SDS011;59999;51.676;22.650;2022-09-21T17:53:11;204.23;;;119.95;;
72125;SDS011;59999;51.676;22.650;2022-09-21T17:55:56;250.27;;;121.50;;
72125;SDS011;59999;51.676;22.650;2022-09-21T17:58:37;108.25;;;50.42;;
72125;SDS011;59999;51.676;22.650;2022-09-21T18:04:06;232.00;;;129.60;;
72125;SDS011;59999;51.676;22.650;2022-09-21T18:06:36;197.27;;;86.43;;
72125;SDS011;59999;51.676;22.650;2022-09-21T18:09:02;133.37;;;54.30;;
72125;SDS011;59999;51.676;22.650;2022-09-21T18:20:23;85.18;;;38.00;;
72125;SDS011;59999;51.676;22.650;2022-09-21T18:25:44;80.75;;;30.52;;
72125;SDS011;59999;51.676;22.650;2022-09-21T18:28:16;131.02;;;82.70;;
72125;SDS011;59999;51.676;22.650;2022-09-21T18:30:46;106.22;;;56.58;;
72125;SDS011;59999;51.676;22.650;2022-09-21T18:33:20;129.43;;;82.88;;